sensor_id;sensor_type;location;lat;lon;timestamp;P1;durP1;ratioP1;P2;durP2;ratioP2
9409;SDS011;4744;52.576;13.568;2023-11-22T00:00:44;4.20;;;3.78;;
9409;SDS011;4744;52.576;13.568;2023-11-22T00:03:12;5.43;;;3.92;;
9409;SDS011;4744;52.576;13.568;2023-11-22T00:05:39;4.63;;;3.65;;
9409;SDS011;4744;52.576;13.568;2023-11-22T00:08:07;4.57;;;3.80;;
9409;SDS011;4744;52.576;13.568;2023-11-22T00:10:34;4.13;;;3.75;;
9409;SDS011;4744;52.576;13.568;2023-11-22T00:13:01;3.58;;;3.28;;
9409;SDS011;4744;52.576;13.568;2023-11-22T00:15:27;4.72;;;4.15;;
9409;SDS011;4744;52.576;13.568;2023-11-22T00:17:54;4.15;;;3.75;;
9409;SDS011;4744;52.576;13.568;2023-11-22T00:20:22;4.20;;;3.80;;
9409;SDS011;4744;52.576;13.568;2023-11-22T00:22:49;4.50;;;3.97;;
9409;SDS011;4744;52.576;13.568;2023-11-22T00:25:18;4.50;;;4.10;;
9409;SDS011;4744;52.576;13.568;2023-11-22T00:27:45;5.60;;;3.50;;
9409;SDS011;4744;52.576;13.568;2023-11-22T00:30:13;5.85;;;3.95;;
9409;SDS011;4744;52.576;13.568;2023-11-22T00:32:40;4.20;;;3.60;;
9409;SDS011;4744;52.576;13.568;2023-11-22T00:35:07;4.88;;;3.72;;
9409;SDS011;4744;52.576;13.568;2023-11-22T00:37:34;4.72;;;3.80;;
9409;SDS011;4744;52.576;13.568;2023-11-22T00:40:01;4.57;;;3.95;;
9409;SDS011;4744;52.576;13.568;2023-11-22T00:42:36;4.50;;;4.07;;
9409;SDS011;4744;52.576;13.568;2023-11-22T00:45:05;4.90;;;3.90;;
9409;SDS011;4744;52.576;13.568;2023-11-22T00:47:33;5.93;;;4.47;;
9409;SDS011;4744;52.576;13.568;2023-11-22T00:50:00;4.57;;;3.80;;
9409;SDS011;4744;52.576;13.568;2023-11-22T00:52:28;4.88;;;4.10;;
9409;SDS011;4744;52.576;13.568;2023-11-22T00:54:55;3.88;;;3.55;;
9409;SDS011;4744;52.576;13.568;2023-11-22T00:57:22;5.20;;;4.05;;
9409;SDS011;4744;52.576;13.568;2023-11-22T00:59:53;4.82;;;3.97;;
9409;SDS011;4744;52.576;13.568;2023-11-22T01:02:20;4.57;;;4.05;;
9409;SDS011;4744;52.576;13.568;2023-11-22T01:04:47;4.55;;;3.70;;
9409;SDS011;4744;52.576;13.568;2023-11-22T01:07:13;5.35;;;4.20;;
9409;SDS011;4744;52.576;13.568;2023-11-22T01:09:41;4.47;;;4.00;;
9409;SDS011;4744;52.576;13.568;2023-11-22T01:12:08;4.47;;;3.92;;
9409;SDS011;4744;52.576;13.568;2023-11-22T01:14:37;5.78;;;4.05;;
9409;SDS011;4744;52.576;13.568;2023-11-22T01:17:05;5.07;;;3.95;;
9409;SDS011;4744;52.576;13.568;2023-11-22T01:19:33;4.38;;;3.95;;
9409;SDS011;4744;52.576;13.568;2023-11-22T01:22:00;5.82;;;3.85;;
9409;SDS011;4744;52.576;13.568;2023-11-22T01:24:27;4.22;;;3.83;;
9409;SDS011;4744;52.576;13.568;2023-11-22T01:26:54;5.50;;;4.22;;
9409;SDS011;4744;52.576;13.568;2023-11-22T01:29:21;5.43;;;4.20;;
9409;SDS011;4744;52.576;13.568;2023-11-22T01:31:48;4.70;;;4.13;;
9409;SDS011;4744;52.576;13.568;2023-11-22T01:34:17;6.83;;;4.57;;
9409;SDS011;4744;52.576;13.568;2023-11-22T01:36:44;5.72;;;4.20;;
9409;SDS011;4744;52.576;13.568;2023-11-22T01:39:11;6.17;;;4.30;;
9409;SDS011;4744;52.576;13.568;2023-11-22T01:41:39;4.60;;;3.90;;
9409;SDS011;4744;52.576;13.568;2023-11-22T01:44:07;5.60;;;4.50;;
9409;SDS011;4744;52.576;13.568;2023-11-22T01:46:34;5.03;;;4.30;;
9409;SDS011;4744;52.576;13.568;2023-11-22T01:49:01;4.67;;;4.20;;
9409;SDS011;4744;52.576;13.568;2023-11-22T01:51:29;5.03;;;4.25;;
9409;SDS011;4744;52.576;13.568;2023-11-22T01:53:57;5.90;;;4.03;;
9409;SDS011;4744;52.576;13.568;2023-11-22T01:56:25;6.13;;;4.00;;
9409;SDS011;4744;52.576;13.568;2023-11-22T01:58:53;4.82;;;3.80;;
9409;SDS011;4744;52.576;13.568;2023-11-22T02:01:21;6.78;;;3.75;;
9409;SDS011;4744;52.576;13.568;2023-11-22T02:03:48;4.77;;;4.13;;
9409;SDS011;4744;52.576;13.568;2023-11-22T02:06:17;4.37;;;3.97;;
9409;SDS011;4744;52.576;13.568;2023-11-22T02:08:45;4.93;;;4.32;;
9409;SDS011;4744;52.576;13.568;2023-11-22T02:11:13;4.43;;;4.03;;
9409;SDS011;4744;52.576;13.568;2023-11-22T02:13:46;5.00;;;4.17;;
9409;SDS011;4744;52.576;13.568;2023-11-22T02:16:13;3.80;;;3.40;;
9409;SDS011;4744;52.576;13.568;2023-11-22T02:18:40;3.93;;;3.53;;
9409;SDS011;4744;52.576;13.568;2023-11-22T02:21:09;3.97;;;3.58;;
9409;SDS011;4744;52.576;13.568;2023-11-22T02:23:37;3.80;;;3.50;;
9409;SDS011;4744;52.576;13.568;2023-11-22T02:26:04;3.77;;;3.37;;
9409;SDS011;4744;52.576;13.568;2023-11-22T02:28:31;3.77;;;3.40;;
9409;SDS011;4744;52.576;13.568;2023-11-22T02:30:58;3.55;;;3.25;;
9409;SDS011;4744;52.576;13.568;2023-11-22T02:33:25;4.20;;;3.80;;
9409;SDS011;4744;52.576;13.568;2023-11-22T02:35:52;4.83;;;3.50;;
9409;SDS011;4744;52.576;13.568;2023-11-22T02:38:19;3.93;;;3.63;;
9409;SDS011;4744;52.576;13.568;2023-11-22T02:40:48;3.70;;;3.40;;
9409;SDS011;4744;52.576;13.568;2023-11-22T02:43:15;3.90;;;3.37;;
9409;SDS011;4744;52.576;13.568;2023-11-22T02:45:42;3.93;;;3.57;;
9409;SDS011;4744;52.576;13.568;2023-11-22T02:48:09;4.43;;;3.13;;
9409;SDS011;4744;52.576;13.568;2023-11-22T02:50:36;4.10;;;3.47;;
9409;SDS011;4744;52.576;13.568;2023-11-22T02:53:04;3.80;;;3.30;;
9409;SDS011;4744;52.576;13.568;2023-11-22T02:55:32;4.33;;;3.93;;
9409;SDS011;4744;52.576;13.568;2023-11-22T02:58:00;4.00;;;3.13;;
9409;SDS011;4744;52.576;13.568;2023-11-22T03:00:28;3.63;;;3.23;;
9409;SDS011;4744;52.576;13.568;2023-11-22T03:02:55;4.47;;;3.37;;
9409;SDS011;4744;52.576;13.568;2023-11-22T03:05:22;3.40;;;3.10;;
9409;SDS011;4744;52.576;13.568;2023-11-22T03:07:49;4.37;;;3.50;;
9409;SDS011;4744;52.576;13.568;2023-11-22T03:10:16;4.13;;;3.67;;
9409;SDS011;4744;52.576;13.568;2023-11-22T03:12:44;3.77;;;3.47;;
9409;SDS011;4744;52.576;13.568;2023-11-22T03:15:12;5.80;;;3.97;;
9409;SDS011;4744;52.576;13.568;2023-11-22T03:17:40;4.27;;;3.50;;
9409;SDS011;4744;52.576;13.568;2023-11-22T03:20:09;4.57;;;3.40;;
9409;SDS011;4744;52.576;13.568;2023-11-22T03:22:37;4.50;;;3.70;;
9409;SDS011;4744;52.576;13.568;2023-11-22T03:25:07;4.10;;;3.53;;
9409;SDS011;4744;52.576;13.568;2023-11-22T03:27:35;4.33;;;3.93;;
9409;SDS011;4744;52.576;13.568;2023-11-22T03:30:02;4.70;;;3.73;;
9409;SDS011;4744;52.576;13.568;2023-11-22T03:32:31;5.03;;;3.97;;
9409;SDS011;4744;52.576;13.568;2023-11-22T03:35:02;4.73;;;4.00;;
9409;SDS011;4744;52.576;13.568;2023-11-22T03:37:29;5.37;;;4.40;;
9409;SDS011;4744;52.576;13.568;2023-11-22T03:39:56;4.23;;;3.83;;
9409;SDS011;4744;52.576;13.568;2023-11-22T03:42:23;4.63;;;4.10;;
9409;SDS011;4744;52.576;13.568;2023-11-22T03:44:49;4.97;;;4.30;;
9409;SDS011;4744;52.576;13.568;2023-11-22T03:47:16;5.13;;;3.93;;
9409;SDS011;4744;52.576;13.568;2023-11-22T03:49:45;6.37;;;4.30;;
9409;SDS011;4744;52.576;13.568;2023-11-22T03:52:12;4.47;;;4.00;;
9409;SDS011;4744;52.576;13.568;2023-11-22T03:54:39;5.27;;;4.10;;
9409;SDS011;4744;52.576;13.568;2023-11-22T03:57:06;5.37;;;3.80;;
9409;SDS011;4744;52.576;13.568;2023-11-22T03:59:34;4.90;;;4.10;;
9409;SDS011;4744;52.576;13.568;2023-11-22T04:02:01;4.73;;;3.87;;
9409;SDS011;4744;52.576;13.568;2023-11-22T04:04:29;5.27;;;4.20;;
9409;SDS011;4744;52.576;13.568;2023-11-22T04:06:57;5.53;;;4.60;;
9409;SDS011;4744;52.576;13.568;2023-11-22T04:09:24;5.17;;;3.97;;
9409;SDS011;4744;52.576;13.568;2023-11-22T04:11:51;5.43;;;4.13;;
9409;SDS011;4744;52.576;13.568;2023-11-22T04:14:18;5.23;;;4.30;;
9409;SDS011;4744;52.576;13.568;2023-11-22T04:16:46;5.30;;;4.43;;
9409;SDS011;4744;52.576;13.568;2023-11-22T04:19:13;5.27;;;4.40;;
9409;SDS011;4744;52.576;13.568;2023-11-22T04:21:40;5.17;;;4.30;;
9409;SDS011;4744;52.576;13.568;2023-11-22T04:24:08;5.37;;;4.07;;
9409;SDS011;4744;52.576;13.568;2023-11-22T04:26:37;5.27;;;4.30;;
9409;SDS011;4744;52.576;13.568;2023-11-22T04:29:04;5.63;;;4.57;;
9409;SDS011;4744;52.576;13.568;2023-11-22T04:31:31;4.37;;;3.97;;
9409;SDS011;4744;52.576;13.568;2023-11-22T04:33:58;5.13;;;4.33;;
9409;SDS011;4744;52.576;13.568;2023-11-22T04:36:25;5.13;;;4.57;;
9409;SDS011;4744;52.576;13.568;2023-11-22T04:38:52;5.30;;;4.57;;
9409;SDS011;4744;52.576;13.568;2023-11-22T04:41:20;5.60;;;4.57;;
9409;SDS011;4744;52.576;13.568;2023-11-22T04:43:50;5.73;;;4.87;;
9409;SDS011;4744;52.576;13.568;2023-11-22T04:46:17;5.87;;;5.03;;
9409;SDS011;4744;52.576;13.568;2023-11-22T04:48:43;6.67;;;4.63;;
9409;SDS011;4744;52.576;13.568;2023-11-22T04:51:12;4.63;;;4.13;;
9409;SDS011;4744;52.576;13.568;2023-11-22T04:53:41;6.10;;;4.53;;
9409;SDS011;4744;52.576;13.568;2023-11-22T04:56:09;5.23;;;4.30;;
9409;SDS011;4744;52.576;13.568;2023-11-22T04:58:37;5.57;;;4.67;;
9409;SDS011;4744;52.576;13.568;2023-11-22T05:01:04;6.33;;;4.93;;
9409;SDS011;4744;52.576;13.568;2023-11-22T05:03:31;5.33;;;4.50;;
9409;SDS011;4744;52.576;13.568;2023-11-22T05:05:58;6.43;;;4.40;;
9409;SDS011;4744;52.576;13.568;2023-11-22T05:08:25;6.27;;;4.87;;
9409;SDS011;4744;52.576;13.568;2023-11-22T05:10:52;6.63;;;4.53;;
9409;SDS011;4744;52.576;13.568;2023-11-22T05:13:19;4.67;;;3.93;;
9409;SDS011;4744;52.576;13.568;2023-11-22T05:15:48;4.70;;;3.83;;
9409;SDS011;4744;52.576;13.568;2023-11-22T05:18:15;5.30;;;4.23;;
9409;SDS011;4744;52.576;13.568;2023-11-22T05:20:42;5.37;;;3.93;;
9409;SDS011;4744;52.576;13.568;2023-11-22T05:23:09;4.83;;;4.20;;
9409;SDS011;4744;52.576;13.568;2023-11-22T05:25:38;4.87;;;4.47;;
9409;SDS011;4744;52.576;13.568;2023-11-22T05:28:05;5.33;;;4.33;;
9409;SDS011;4744;52.576;13.568;2023-11-22T05:30:32;5.53;;;4.67;;
9409;SDS011;4744;52.576;13.568;2023-11-22T05:33:00;4.53;;;3.70;;
9409;SDS011;4744;52.576;13.568;2023-11-22T05:35:27;4.27;;;3.87;;
9409;SDS011;4744;52.576;13.568;2023-11-22T05:37:54;6.67;;;4.03;;
9409;SDS011;4744;52.576;13.568;2023-11-22T05:40:22;4.73;;;4.20;;
9409;SDS011;4744;52.576;13.568;2023-11-22T05:42:49;4.27;;;3.87;;
9409;SDS011;4744;52.576;13.568;2023-11-22T05:45:16;4.63;;;3.73;;
9409;SDS011;4744;52.576;13.568;2023-11-22T05:47:43;5.07;;;4.57;;
9409;SDS011;4744;52.576;13.568;2023-11-22T05:50:11;5.07;;;4.50;;
9409;SDS011;4744;52.576;13.568;2023-11-22T05:52:38;4.73;;;4.03;;
9409;SDS011;4744;52.576;13.568;2023-11-22T05:55:05;4.77;;;4.10;;
9409;SDS011;4744;52.576;13.568;2023-11-22T05:57:33;5.00;;;4.03;;
9409;SDS011;4744;52.576;13.568;2023-11-22T06:00:00;4.40;;;4.00;;
9409;SDS011;4744;52.576;13.568;2023-11-22T06:02:27;5.13;;;4.30;;
9409;SDS011;4744;52.576;13.568;2023-11-22T06:04:54;4.67;;;3.90;;
9409;SDS011;4744;52.576;13.568;2023-11-22T06:07:22;4.87;;;4.40;;
9409;SDS011;4744;52.576;13.568;2023-11-22T06:09:49;4.13;;;3.73;;
9409;SDS011;4744;52.576;13.568;2023-11-22T06:12:16;5.07;;;4.50;;
9409;SDS011;4744;52.576;13.568;2023-11-22T06:14:45;5.97;;;4.30;;
9409;SDS011;4744;52.576;13.568;2023-11-22T06:17:12;4.60;;;4.20;;
9409;SDS011;4744;52.576;13.568;2023-11-22T06:19:40;5.03;;;4.23;;
9409;SDS011;4744;52.576;13.568;2023-11-22T06:22:07;4.80;;;4.23;;
9409;SDS011;4744;52.576;13.568;2023-11-22T06:24:35;5.13;;;4.63;;
9409;SDS011;4744;52.576;13.568;2023-11-22T06:27:02;4.87;;;4.30;;
9409;SDS011;4744;52.576;13.568;2023-11-22T06:29:30;5.13;;;4.27;;
9409;SDS011;4744;52.576;13.568;2023-11-22T06:31:57;4.77;;;4.10;;
9409;SDS011;4744;52.576;13.568;2023-11-22T06:34:24;4.63;;;4.10;;
9409;SDS011;4744;52.576;13.568;2023-11-22T06:36:51;4.30;;;3.90;;
9409;SDS011;4744;52.576;13.568;2023-11-22T06:39:18;5.43;;;4.20;;
9409;SDS011;4744;52.576;13.568;2023-11-22T06:41:46;5.93;;;4.00;;
9409;SDS011;4744;52.576;13.568;2023-11-22T06:44:13;4.40;;;4.00;;
9409;SDS011;4744;52.576;13.568;2023-11-22T06:46:40;4.73;;;4.03;;
9409;SDS011;4744;52.576;13.568;2023-11-22T06:49:07;5.57;;;4.57;;
9409;SDS011;4744;52.576;13.568;2023-11-22T06:51:34;5.47;;;3.90;;
9409;SDS011;4744;52.576;13.568;2023-11-22T06:54:01;4.30;;;3.73;;
9409;SDS011;4744;52.576;13.568;2023-11-22T06:56:28;4.50;;;4.10;;
9409;SDS011;4744;52.576;13.568;2023-11-22T06:58:56;5.87;;;4.53;;
9409;SDS011;4744;52.576;13.568;2023-11-22T07:01:23;6.17;;;5.20;;
9409;SDS011;4744;52.576;13.568;2023-11-22T07:03:51;5.77;;;4.97;;
9409;SDS011;4744;52.576;13.568;2023-11-22T07:06:19;5.80;;;4.33;;
9409;SDS011;4744;52.576;13.568;2023-11-22T07:08:47;6.37;;;4.97;;
9409;SDS011;4744;52.576;13.568;2023-11-22T07:11:21;6.43;;;5.67;;
9409;SDS011;4744;52.576;13.568;2023-11-22T07:13:49;5.70;;;4.97;;
9409;SDS011;4744;52.576;13.568;2023-11-22T07:16:18;4.93;;;4.43;;
9409;SDS011;4744;52.576;13.568;2023-11-22T07:18:45;5.90;;;4.33;;
9409;SDS011;4744;52.576;13.568;2023-11-22T07:21:12;5.77;;;4.77;;
9409;SDS011;4744;52.576;13.568;2023-11-22T07:23:39;4.73;;;4.33;;
9409;SDS011;4744;52.576;13.568;2023-11-22T07:26:06;6.23;;;4.57;;
9409;SDS011;4744;52.576;13.568;2023-11-22T07:28:33;5.03;;;4.47;;
9409;SDS011;4744;52.576;13.568;2023-11-22T07:31:01;5.20;;;4.00;;
9409;SDS011;4744;52.576;13.568;2023-11-22T07:33:32;5.90;;;4.20;;
9409;SDS011;4744;52.576;13.568;2023-11-22T07:35:59;5.07;;;4.50;;
9409;SDS011;4744;52.576;13.568;2023-11-22T07:38:27;4.80;;;4.40;;
9409;SDS011;4744;52.576;13.568;2023-11-22T07:40:56;5.10;;;4.60;;
9409;SDS011;4744;52.576;13.568;2023-11-22T07:43:23;5.03;;;4.50;;
9409;SDS011;4744;52.576;13.568;2023-11-22T07:45:50;6.20;;;4.40;;
9409;SDS011;4744;52.576;13.568;2023-11-22T07:48:16;6.47;;;4.97;;
9409;SDS011;4744;52.576;13.568;2023-11-22T07:50:45;5.93;;;4.80;;
9409;SDS011;4744;52.576;13.568;2023-11-22T07:53:14;5.80;;;4.50;;
9409;SDS011;4744;52.576;13.568;2023-11-22T07:55:42;6.57;;;5.07;;
9409;SDS011;4744;52.576;13.568;2023-11-22T07:58:09;7.03;;;4.50;;
9409;SDS011;4744;52.576;13.568;2023-11-22T08:00:37;6.50;;;4.63;;
9409;SDS011;4744;52.576;13.568;2023-11-22T08:03:07;5.80;;;5.13;;
9409;SDS011;4744;52.576;13.568;2023-11-22T08:05:34;6.27;;;4.70;;
9409;SDS011;4744;52.576;13.568;2023-11-22T08:08:03;6.30;;;4.93;;
9409;SDS011;4744;52.576;13.568;2023-11-22T08:10:33;5.93;;;5.30;;
9409;SDS011;4744;52.576;13.568;2023-11-22T08:13:00;5.40;;;4.90;;
9409;SDS011;4744;52.576;13.568;2023-11-22T08:15:27;6.30;;;4.73;;
9409;SDS011;4744;52.576;13.568;2023-11-22T08:17:56;5.10;;;4.60;;
9409;SDS011;4744;52.576;13.568;2023-11-22T08:20:23;5.13;;;4.50;;
9409;SDS011;4744;52.576;13.568;2023-11-22T08:22:50;5.60;;;4.57;;
9409;SDS011;4744;52.576;13.568;2023-11-22T08:25:18;4.90;;;4.50;;
9409;SDS011;4744;52.576;13.568;2023-11-22T08:27:45;5.68;;;4.90;;
9409;SDS011;4744;52.576;13.568;2023-11-22T08:30:12;6.60;;;4.45;;
9409;SDS011;4744;52.576;13.568;2023-11-22T08:32:40;4.68;;;4.18;;
9409;SDS011;4744;52.576;13.568;2023-11-22T08:35:08;5.03;;;4.35;;
9409;SDS011;4744;52.576;13.568;2023-11-22T08:37:35;5.18;;;4.68;;
9409;SDS011;4744;52.576;13.568;2023-11-22T08:40:04;4.47;;;4.07;;
9409;SDS011;4744;52.576;13.568;2023-11-22T08:42:34;4.78;;;4.38;;
9409;SDS011;4744;52.576;13.568;2023-11-22T08:45:01;5.10;;;4.60;;
9409;SDS011;4744;52.576;13.568;2023-11-22T08:47:29;5.95;;;5.35;;
9409;SDS011;4744;52.576;13.568;2023-11-22T08:49:56;5.40;;;4.90;;
9409;SDS011;4744;52.576;13.568;2023-11-22T08:52:24;5.07;;;4.60;;
9409;SDS011;4744;52.576;13.568;2023-11-22T08:54:51;5.03;;;4.60;;
9409;SDS011;4744;52.576;13.568;2023-11-22T08:57:18;4.97;;;4.47;;
9409;SDS011;4744;52.576;13.568;2023-11-22T08:59:47;5.47;;;4.95;;
9409;SDS011;4744;52.576;13.568;2023-11-22T09:02:14;6.35;;;5.53;;
9409;SDS011;4744;52.576;13.568;2023-11-22T09:04:41;5.72;;;5.22;;
9409;SDS011;4744;52.576;13.568;2023-11-22T09:07:08;7.50;;;4.47;;
9409;SDS011;4744;52.576;13.568;2023-11-22T09:09:38;4.78;;;4.28;;
9409;SDS011;4744;52.576;13.568;2023-11-22T09:12:06;6.25;;;4.60;;
9409;SDS011;4744;52.576;13.568;2023-11-22T09:14:37;6.90;;;4.28;;
9409;SDS011;4744;52.576;13.568;2023-11-22T09:17:07;4.70;;;4.03;;
9409;SDS011;4744;52.576;13.568;2023-11-22T09:19:35;4.30;;;3.78;;
9409;SDS011;4744;52.576;13.568;2023-11-22T09:22:02;4.18;;;3.83;;
9409;SDS011;4744;52.576;13.568;2023-11-22T09:24:31;6.90;;;4.50;;
9409;SDS011;4744;52.576;13.568;2023-11-22T09:26:58;5.50;;;4.50;;
9409;SDS011;4744;52.576;13.568;2023-11-22T09:29:30;4.55;;;4.15;;
9409;SDS011;4744;52.576;13.568;2023-11-22T09:31:57;4.57;;;4.18;;
9409;SDS011;4744;52.576;13.568;2023-11-22T09:34:27;6.50;;;4.70;;
9409;SDS011;4744;52.576;13.568;2023-11-22T09:36:54;4.15;;;3.75;;
9409;SDS011;4744;52.576;13.568;2023-11-22T09:39:21;4.95;;;4.03;;
9409;SDS011;4744;52.576;13.568;2023-11-22T09:41:50;4.65;;;4.18;;
9409;SDS011;4744;52.576;13.568;2023-11-22T09:44:18;4.57;;;4.18;;
9409;SDS011;4744;52.576;13.568;2023-11-22T09:46:46;4.97;;;4.38;;
9409;SDS011;4744;52.576;13.568;2023-11-22T09:49:18;5.20;;;4.70;;
9409;SDS011;4744;52.576;13.568;2023-11-22T09:51:50;4.53;;;4.05;;
9409;SDS011;4744;52.576;13.568;2023-11-22T09:54:20;4.65;;;4.22;;
9409;SDS011;4744;52.576;13.568;2023-11-22T09:56:54;4.75;;;4.35;;
9409;SDS011;4744;52.576;13.568;2023-11-22T09:59:25;5.55;;;4.97;;
9409;SDS011;4744;52.576;13.568;2023-11-22T10:01:52;5.05;;;4.45;;
9409;SDS011;4744;52.576;13.568;2023-11-22T10:04:19;4.53;;;4.13;;
9409;SDS011;4744;52.576;13.568;2023-11-22T10:06:46;4.18;;;3.78;;
9409;SDS011;4744;52.576;13.568;2023-11-22T10:09:15;4.70;;;4.25;;
9409;SDS011;4744;52.576;13.568;2023-11-22T10:11:42;4.28;;;3.88;;
9409;SDS011;4744;52.576;13.568;2023-11-22T10:14:10;5.32;;;4.10;;
9409;SDS011;4744;52.576;13.568;2023-11-22T10:16:37;5.38;;;4.43;;
9409;SDS011;4744;52.576;13.568;2023-11-22T10:19:04;4.75;;;4.28;;
9409;SDS011;4744;52.576;13.568;2023-11-22T10:21:32;4.70;;;4.20;;
9409;SDS011;4744;52.576;13.568;2023-11-22T10:24:00;5.93;;;4.38;;
9409;SDS011;4744;52.576;13.568;2023-11-22T10:26:29;4.60;;;4.07;;
9409;SDS011;4744;52.576;13.568;2023-11-22T10:28:56;4.60;;;4.20;;
9409;SDS011;4744;52.576;13.568;2023-11-22T10:31:24;5.00;;;4.05;;
9409;SDS011;4744;52.576;13.568;2023-11-22T10:33:51;4.97;;;3.92;;
9409;SDS011;4744;52.576;13.568;2023-11-22T10:36:20;4.32;;;3.92;;
9409;SDS011;4744;52.576;13.568;2023-11-22T10:38:48;4.82;;;3.83;;
9409;SDS011;4744;52.576;13.568;2023-11-22T10:41:16;4.78;;;4.10;;
9409;SDS011;4744;52.576;13.568;2023-11-22T10:43:44;4.90;;;4.40;;
9409;SDS011;4744;52.576;13.568;2023-11-22T10:46:12;5.63;;;3.75;;
9409;SDS011;4744;52.576;13.568;2023-11-22T10:48:39;4.65;;;4.18;;
9409;SDS011;4744;52.576;13.568;2023-11-22T10:51:06;7.65;;;4.63;;
9409;SDS011;4744;52.576;13.568;2023-11-22T10:53:42;4.03;;;3.63;;
9409;SDS011;4744;52.576;13.568;2023-11-22T10:56:14;5.03;;;4.25;;
9409;SDS011;4744;52.576;13.568;2023-11-22T10:58:46;4.40;;;4.00;;
9409;SDS011;4744;52.576;13.568;2023-11-22T11:01:14;5.68;;;4.43;;
9409;SDS011;4744;52.576;13.568;2023-11-22T11:03:45;4.00;;;3.70;;
9409;SDS011;4744;52.576;13.568;2023-11-22T11:06:18;4.18;;;3.50;;
9409;SDS011;4744;52.576;13.568;2023-11-22T11:08:52;4.22;;;3.83;;
9409;SDS011;4744;52.576;13.568;2023-11-22T11:11:21;5.40;;;3.90;;
9409;SDS011;4744;52.576;13.568;2023-11-22T11:13:50;4.47;;;3.47;;
9409;SDS011;4744;52.576;13.568;2023-11-22T11:16:19;4.68;;;3.97;;
9409;SDS011;4744;52.576;13.568;2023-11-22T11:18:46;4.20;;;3.80;;
9409;SDS011;4744;52.576;13.568;2023-11-22T11:21:14;5.15;;;3.80;;
9409;SDS011;4744;52.576;13.568;2023-11-22T11:23:41;3.95;;;3.55;;
9409;SDS011;4744;52.576;13.568;2023-11-22T11:26:13;5.05;;;4.38;;
9409;SDS011;4744;52.576;13.568;2023-11-22T11:28:43;4.40;;;4.00;;
9409;SDS011;4744;52.576;13.568;2023-11-22T11:31:12;4.05;;;3.65;;
9409;SDS011;4744;52.576;13.568;2023-11-22T11:33:53;4.80;;;4.30;;
9409;SDS011;4744;52.576;13.568;2023-11-22T11:36:21;4.30;;;3.90;;
9409;SDS011;4744;52.576;13.568;2023-11-22T11:38:50;4.82;;;4.32;;
9409;SDS011;4744;52.576;13.568;2023-11-22T11:41:18;4.75;;;4.25;;
9409;SDS011;4744;52.576;13.568;2023-11-22T11:43:46;4.25;;;3.80;;
9409;SDS011;4744;52.576;13.568;2023-11-22T11:46:16;4.28;;;3.88;;
9409;SDS011;4744;52.576;13.568;2023-11-22T11:48:43;4.18;;;3.88;;
9409;SDS011;4744;52.576;13.568;2023-11-22T11:51:13;4.20;;;3.78;;
9409;SDS011;4744;52.576;13.568;2023-11-22T11:53:40;4.43;;;3.95;;
9409;SDS011;4744;52.576;13.568;2023-11-22T11:56:07;4.30;;;3.90;;
9409;SDS011;4744;52.576;13.568;2023-11-22T11:58:35;4.35;;;3.60;;
9409;SDS011;4744;52.576;13.568;2023-11-22T12:01:04;4.50;;;4.07;;
9409;SDS011;4744;52.576;13.568;2023-11-22T12:03:33;4.10;;;3.70;;
9409;SDS011;4744;52.576;13.568;2023-11-22T12:06:01;3.95;;;3.60;;
9409;SDS011;4744;52.576;13.568;2023-11-22T12:08:29;4.22;;;3.83;;
9409;SDS011;4744;52.576;13.568;2023-11-22T12:11:01;4.90;;;4.15;;
9409;SDS011;4744;52.576;13.568;2023-11-22T12:13:29;5.05;;;4.00;;
9409;SDS011;4744;52.576;13.568;2023-11-22T12:15:56;5.03;;;4.13;;
9409;SDS011;4744;52.576;13.568;2023-11-22T12:18:23;4.32;;;3.80;;
9409;SDS011;4744;52.576;13.568;2023-11-22T12:20:55;4.47;;;3.95;;
9409;SDS011;4744;52.576;13.568;2023-11-22T12:23:23;4.50;;;4.07;;
9409;SDS011;4744;52.576;13.568;2023-11-22T12:25:53;4.68;;;4.18;;
9409;SDS011;4744;52.576;13.568;2023-11-22T12:28:22;4.47;;;4.07;;
9409;SDS011;4744;52.576;13.568;2023-11-22T12:30:50;5.10;;;4.10;;
9409;SDS011;4744;52.576;13.568;2023-11-22T12:33:17;5.72;;;4.60;;
9409;SDS011;4744;52.576;13.568;2023-11-22T12:35:44;6.82;;;4.38;;
9409;SDS011;4744;52.576;13.568;2023-11-22T12:38:13;5.35;;;4.78;;
9409;SDS011;4744;52.576;13.568;2023-11-22T12:40:43;5.15;;;4.30;;
9409;SDS011;4744;52.576;13.568;2023-11-22T12:43:11;4.68;;;4.25;;
9409;SDS011;4744;52.576;13.568;2023-11-22T12:45:40;5.05;;;4.50;;
9409;SDS011;4744;52.576;13.568;2023-11-22T12:48:20;4.43;;;4.03;;
9409;SDS011;4744;52.576;13.568;2023-11-22T12:50:49;5.35;;;4.22;;
9409;SDS011;4744;52.576;13.568;2023-11-22T12:53:18;6.35;;;4.22;;
9409;SDS011;4744;52.576;13.568;2023-11-22T12:55:47;4.68;;;3.97;;
9409;SDS011;4744;52.576;13.568;2023-11-22T12:58:16;5.10;;;3.78;;
9409;SDS011;4744;52.576;13.568;2023-11-22T13:00:43;5.35;;;3.92;;
9409;SDS011;4744;52.576;13.568;2023-11-22T13:03:11;3.80;;;3.50;;
9409;SDS011;4744;52.576;13.568;2023-11-22T13:05:38;3.78;;;3.35;;
9409;SDS011;4744;52.576;13.568;2023-11-22T13:08:07;3.60;;;3.30;;
9409;SDS011;4744;52.576;13.568;2023-11-22T13:10:37;3.60;;;3.30;;
9409;SDS011;4744;52.576;13.568;2023-11-22T13:13:04;3.20;;;2.90;;
9409;SDS011;4744;52.576;13.568;2023-11-22T13:15:33;3.45;;;3.00;;
9409;SDS011;4744;52.576;13.568;2023-11-22T13:18:01;4.03;;;3.58;;
9409;SDS011;4744;52.576;13.568;2023-11-22T13:20:28;3.33;;;3.03;;
9409;SDS011;4744;52.576;13.568;2023-11-22T13:22:55;4.47;;;3.35;;
9409;SDS011;4744;52.576;13.568;2023-11-22T13:25:22;3.85;;;3.38;;
9409;SDS011;4744;52.576;13.568;2023-11-22T13:27:51;3.10;;;2.80;;
9409;SDS011;4744;52.576;13.568;2023-11-22T13:30:24;5.38;;;3.95;;
9409;SDS011;4744;52.576;13.568;2023-11-22T13:32:51;4.38;;;3.60;;
9409;SDS011;4744;52.576;13.568;2023-11-22T13:35:19;3.92;;;3.15;;
9409;SDS011;4744;52.576;13.568;2023-11-22T13:37:47;3.85;;;3.45;;
9409;SDS011;4744;52.576;13.568;2023-11-22T13:40:15;4.65;;;4.03;;
9409;SDS011;4744;52.576;13.568;2023-11-22T13:42:47;4.07;;;3.67;;
9409;SDS011;4744;52.576;13.568;2023-11-22T13:45:16;4.15;;;3.75;;
9409;SDS011;4744;52.576;13.568;2023-11-22T13:47:44;3.40;;;3.10;;
9409;SDS011;4744;52.576;13.568;2023-11-22T13:50:12;4.63;;;3.47;;
9409;SDS011;4744;52.576;13.568;2023-11-22T13:52:43;9.65;;;5.35;;
9409;SDS011;4744;52.576;13.568;2023-11-22T13:55:10;9.20;;;5.63;;
9409;SDS011;4744;52.576;13.568;2023-11-22T13:57:38;5.93;;;4.30;;
9409;SDS011;4744;52.576;13.568;2023-11-22T14:00:06;5.03;;;4.03;;
9409;SDS011;4744;52.576;13.568;2023-11-22T14:02:38;6.05;;;3.80;;
9409;SDS011;4744;52.576;13.568;2023-11-22T14:05:07;4.20;;;3.60;;
9409;SDS011;4744;52.576;13.568;2023-11-22T14:07:35;4.40;;;3.63;;
9409;SDS011;4744;52.576;13.568;2023-11-22T14:10:02;4.20;;;3.80;;
9409;SDS011;4744;52.576;13.568;2023-11-22T14:12:30;4.07;;;3.53;;
9409;SDS011;4744;52.576;13.568;2023-11-22T14:14:57;4.07;;;3.50;;
9409;SDS011;4744;52.576;13.568;2023-11-22T14:17:24;4.20;;;3.55;;
9409;SDS011;4744;52.576;13.568;2023-11-22T14:19:53;4.07;;;3.30;;
9409;SDS011;4744;52.576;13.568;2023-11-22T14:22:20;4.68;;;3.88;;
9409;SDS011;4744;52.576;13.568;2023-11-22T14:24:47;3.40;;;3.10;;
9409;SDS011;4744;52.576;13.568;2023-11-22T14:27:15;3.30;;;2.90;;
9409;SDS011;4744;52.576;13.568;2023-11-22T14:29:42;3.90;;;3.55;;
9409;SDS011;4744;52.576;13.568;2023-11-22T14:32:11;4.13;;;3.38;;
9409;SDS011;4744;52.576;13.568;2023-11-22T14:34:39;5.18;;;3.78;;
9409;SDS011;4744;52.576;13.568;2023-11-22T14:37:10;4.57;;;3.55;;
9409;SDS011;4744;52.576;13.568;2023-11-22T14:39:37;4.68;;;3.90;;
9409;SDS011;4744;52.576;13.568;2023-11-22T14:42:04;5.95;;;4.00;;
9409;SDS011;4744;52.576;13.568;2023-11-22T14:44:32;3.97;;;3.60;;
9409;SDS011;4744;52.576;13.568;2023-11-22T14:47:00;5.68;;;3.92;;
9409;SDS011;4744;52.576;13.568;2023-11-22T14:49:37;4.22;;;3.80;;
9409;SDS011;4744;52.576;13.568;2023-11-22T14:52:10;4.13;;;3.72;;
9409;SDS011;4744;52.576;13.568;2023-11-22T14:54:37;3.90;;;3.50;;
9409;SDS011;4744;52.576;13.568;2023-11-22T14:57:08;5.47;;;3.40;;
9409;SDS011;4744;52.576;13.568;2023-11-22T14:59:38;3.38;;;3.00;;
9409;SDS011;4744;52.576;13.568;2023-11-22T15:02:20;3.60;;;3.30;;
9409;SDS011;4744;52.576;13.568;2023-11-22T15:04:51;3.53;;;3.22;;